createdAt,value
2022-08-19T00:01:31.143Z,21.95
2022-08-19T00:04:03.497Z,21.94
2022-08-19T00:06:31.040Z,22.00
2022-08-19T00:08:58.535Z,21.94
2022-08-19T00:11:26.366Z,21.92
2022-08-19T00:13:53.963Z,21.89
2022-08-19T00:16:26.102Z,21.97
2022-08-19T00:18:56.689Z,21.97
2022-08-19T00:21:24.839Z,21.95
2022-08-19T00:23:51.415Z,22.03
2022-08-19T00:26:17.865Z,21.96
2022-08-19T00:28:44.292Z,21.93
2022-08-19T00:31:10.883Z,21.80
2022-08-19T00:33:37.819Z,21.79
2022-08-19T00:36:07.281Z,21.78
2022-08-19T00:38:37.515Z,21.81
2022-08-19T00:41:05.925Z,21.75
2022-08-19T00:43:32.735Z,21.73
2022-08-19T00:45:59.245Z,21.72
2022-08-19T00:48:25.978Z,21.72
2022-08-19T00:50:54.115Z,21.66
2022-08-19T00:53:23.391Z,21.66
2022-08-19T00:55:52.688Z,21.72
2022-08-19T00:58:21.557Z,21.72
2022-08-19T01:00:49.053Z,21.68
2022-08-19T01:03:19.290Z,21.71
2022-08-19T01:05:47.345Z,21.61
2022-08-19T01:08:16.249Z,21.79
2022-08-19T01:10:46.594Z,21.72
2022-08-19T01:13:17.598Z,21.78
2022-08-19T01:15:51.534Z,21.78
2022-08-19T01:18:19.236Z,21.81
2022-08-19T01:20:46.563Z,21.79
2022-08-19T01:23:14.840Z,21.84
2022-08-19T01:25:51.721Z,21.73
2022-08-19T01:28:33.711Z,21.67
2022-08-19T01:31:01.114Z,21.78
2022-08-19T01:33:34.847Z,21.63
2022-08-19T01:36:07.526Z,21.64
2022-08-19T01:38:37.809Z,21.78
2022-08-19T01:41:12.531Z,21.76
2022-08-19T01:43:39.421Z,21.76
2022-08-19T01:46:26.065Z,21.81
2022-08-19T01:48:52.785Z,21.77
2022-08-19T01:51:19.434Z,21.83
2022-08-19T01:53:49.148Z,21.72
2022-08-19T01:56:15.872Z,21.75
2022-08-19T01:58:47.404Z,21.76
2022-08-19T02:01:14.759Z,21.81
2022-08-19T02:03:42.424Z,21.79
2022-08-19T02:06:09.091Z,21.84
2022-08-19T02:08:37.402Z,21.90
2022-08-19T02:11:05.009Z,21.90
2022-08-19T02:13:32.480Z,21.95
2022-08-19T02:15:58.987Z,22.13
2022-08-19T02:18:27.837Z,21.98
2022-08-19T02:20:56.184Z,21.98
2022-08-19T02:23:22.657Z,22.02
2022-08-19T02:25:49.759Z,21.96
2022-08-19T02:28:18.770Z,21.95
2022-08-19T02:30:46.618Z,21.86
2022-08-19T02:33:13.094Z,21.87
2022-08-19T02:35:43.682Z,21.82
2022-08-19T02:38:28.391Z,21.83
2022-08-19T02:41:00.599Z,21.88
2022-08-19T02:43:28.537Z,21.92
2022-08-19T02:45:55.214Z,21.98
2022-08-19T02:48:23.530Z,22.05
2022-08-19T02:50:56.055Z,21.95
2022-08-19T02:53:24.333Z,21.95
2022-08-19T02:55:51.796Z,21.95
2022-08-19T02:58:19.290Z,21.92
2022-08-19T03:00:50.245Z,21.83
2022-08-19T03:03:17.269Z,21.85
2022-08-19T03:05:48.205Z,21.86
2022-08-19T03:08:22.838Z,21.90
2022-08-19T03:10:49.320Z,21.97
2022-08-19T03:13:17.155Z,21.98
2022-08-19T03:15:45.653Z,21.98
2022-08-19T03:18:12.561Z,21.98
2022-08-19T03:20:44.889Z,21.97
2022-08-19T03:23:13.417Z,21.94
2022-08-19T03:25:44.005Z,21.87
2022-08-19T03:28:12.951Z,21.85
2022-08-19T03:30:43.614Z,21.91
2022-08-19T03:33:11.346Z,21.96
2022-08-19T03:35:46.023Z,21.90
2022-08-19T03:38:12.630Z,21.89
2022-08-19T03:40:39.353Z,21.92
2022-08-19T03:43:06.984Z,21.89
2022-08-19T03:45:33.470Z,21.95
2022-08-19T03:48:00.016Z,21.94
2022-08-19T03:50:26.608Z,21.84
2022-08-19T03:52:53.721Z,21.83
2022-08-19T03:55:20.369Z,21.88
2022-08-19T03:57:49.500Z,21.92
2022-08-19T04:00:16.476Z,21.89
2022-08-19T04:02:58.060Z,21.85
2022-08-19T04:05:29.524Z,21.88
2022-08-19T04:07:59.733Z,21.89
2022-08-19T04:10:26.329Z,21.87
2022-08-19T04:12:52.889Z,21.91
2022-08-19T04:15:19.947Z,21.99
2022-08-19T04:17:46.391Z,21.93
2022-08-19T04:20:12.947Z,21.92
2022-08-19T04:22:39.347Z,21.99
2022-08-19T04:25:06.213Z,21.84
2022-08-19T04:27:34.339Z,21.86
2022-08-19T04:30:00.782Z,21.88
2022-08-19T04:32:27.235Z,21.89
2022-08-19T04:35:01.278Z,21.93
2022-08-19T04:37:35.174Z,21.85
2022-08-19T04:40:22.802Z,21.99
2022-08-19T04:42:49.214Z,21.99
2022-08-19T04:45:17.459Z,22.02
2022-08-19T04:47:47.402Z,21.88
2022-08-19T04:50:25.635Z,21.89
2022-08-19T04:52:52.687Z,21.92
2022-08-19T04:55:19.678Z,21.83
2022-08-19T04:57:46.207Z,21.89
2022-08-19T05:00:13.257Z,21.87
2022-08-19T05:02:39.801Z,21.87
2022-08-19T05:05:07.254Z,21.88
2022-08-19T05:07:33.709Z,21.84
2022-08-19T05:10:00.129Z,21.83
2022-08-19T05:12:29.109Z,21.82
2022-08-19T05:14:57.684Z,21.84
2022-08-19T05:17:27.623Z,21.86
2022-08-19T05:20:14.297Z,21.84
2022-08-19T05:22:41.703Z,21.70
2022-08-19T05:25:13.878Z,21.71
2022-08-19T05:27:42.009Z,21.64
2022-08-19T05:30:08.994Z,21.62
2022-08-19T05:32:35.690Z,21.72
2022-08-19T05:35:02.201Z,21.78
2022-08-19T05:37:28.850Z,21.73
2022-08-19T05:39:56.046Z,21.86
2022-08-19T05:42:24.004Z,21.74
2022-08-19T05:44:51.541Z,21.75
2022-08-19T05:47:20.698Z,21.70
2022-08-19T05:49:47.789Z,21.67
2022-08-19T05:52:18.589Z,21.69
2022-08-19T05:54:50.965Z,21.65
2022-08-19T05:57:18.976Z,21.59
2022-08-19T05:59:47.181Z,21.47
2022-08-19T06:02:15.162Z,21.44
2022-08-19T06:04:43.713Z,21.39
2022-08-19T06:07:12.405Z,21.41
2022-08-19T06:09:40.223Z,21.51
2022-08-19T06:12:07.463Z,21.45
2022-08-19T06:14:40.322Z,21.46
2022-08-19T06:17:08.599Z,21.57
2022-08-19T06:19:35.055Z,21.55
2022-08-19T06:22:07.581Z,21.52
2022-08-19T06:24:34.115Z,21.41
2022-08-19T06:27:01.763Z,21.37
2022-08-19T06:29:29.025Z,21.38
2022-08-19T06:31:57.336Z,21.44
2022-08-19T06:34:24.718Z,21.38
2022-08-19T06:36:52.829Z,21.50
2022-08-19T06:39:22.746Z,21.43
2022-08-19T06:41:53.311Z,21.41
2022-08-19T06:44:23.810Z,21.39
2022-08-19T06:46:54.955Z,21.47
2022-08-19T06:49:22.561Z,21.38
2022-08-19T06:51:50.204Z,21.45
2022-08-19T06:54:20.101Z,21.42
2022-08-19T06:56:47.347Z,21.37
2022-08-19T06:59:16.730Z,21.43
2022-08-19T07:01:47.898Z,21.45
2022-08-19T07:04:16.709Z,21.33
2022-08-19T07:06:44.857Z,21.28
2022-08-19T07:09:14.695Z,21.26
2022-08-19T07:11:50.162Z,21.09
2022-08-19T07:14:19.711Z,21.05
2022-08-19T07:16:48.572Z,21.05
2022-08-19T07:19:16.217Z,21.09
2022-08-19T07:21:47.135Z,21.15
2022-08-19T07:24:13.664Z,21.19
2022-08-19T07:26:42.415Z,21.29
2022-08-19T07:29:09.791Z,21.24
2022-08-19T07:31:37.623Z,21.14
2022-08-19T07:34:08.539Z,21.09
2022-08-19T07:36:37.696Z,21.01
2022-08-19T07:39:08.455Z,21.07
2022-08-19T07:41:36.306Z,21.02
2022-08-19T07:44:04.658Z,20.96
2022-08-19T07:46:36.152Z,20.94
2022-08-19T07:49:03.878Z,20.96
2022-08-19T07:51:36.491Z,21.00
2022-08-19T07:54:04.323Z,20.92
2022-08-19T07:56:31.101Z,20.99
2022-08-19T07:58:57.690Z,20.95
2022-08-19T08:01:29.087Z,20.96
2022-08-19T08:04:16.227Z,20.90
2022-08-19T08:07:01.948Z,20.87
2022-08-19T08:09:39.197Z,20.93
2022-08-19T08:12:35.294Z,20.89
2022-08-19T08:15:08.424Z,20.77
2022-08-19T08:17:51.445Z,20.71
2022-08-19T08:20:19.507Z,20.69
2022-08-19T08:23:05.442Z,20.79
2022-08-19T08:25:32.585Z,20.82
2022-08-19T08:28:01.195Z,20.78
2022-08-19T08:30:31.318Z,20.84
2022-08-19T08:33:00.029Z,20.84
2022-08-19T08:35:26.846Z,20.90
2022-08-19T08:37:55.120Z,20.92
2022-08-19T08:40:30.517Z,20.92
2022-08-19T08:43:22.623Z,20.95
2022-08-19T08:45:53.906Z,21.05
2022-08-19T08:48:35.903Z,21.20
2022-08-19T08:51:05.256Z,21.17
2022-08-19T08:53:34.407Z,21.20
2022-08-19T08:56:04.758Z,21.19
2022-08-19T08:58:59.471Z,21.32
2022-08-19T09:01:30.484Z,21.46
2022-08-19T09:03:57.666Z,21.58
2022-08-19T09:06:41.035Z,21.77
2022-08-19T09:09:32.046Z,21.99
2022-08-19T09:12:11.881Z,22.07
2022-08-19T09:14:55.189Z,22.21
2022-08-19T09:17:31.806Z,22.43
2022-08-19T09:20:26.532Z,22.53
2022-08-19T09:22:53.402Z,22.80
2022-08-19T09:25:24.765Z,22.83
2022-08-19T09:27:55.662Z,23.08
2022-08-19T09:30:32.013Z,23.49
2022-08-19T09:32:59.440Z,23.86
2022-08-19T09:35:28.386Z,24.12
2022-08-19T09:37:57.542Z,24.39
2022-08-19T09:40:27.973Z,24.48
2022-08-19T09:42:58.680Z,24.82
2022-08-19T09:45:25.175Z,25.00
2022-08-19T09:47:54.250Z,24.89
2022-08-19T09:50:22.893Z,25.00
2022-08-19T09:52:55.517Z,25.09
2022-08-19T09:55:24.856Z,25.20
2022-08-19T09:58:00.052Z,25.05
2022-08-19T10:00:27.408Z,24.74
2022-08-19T10:02:53.939Z,24.37
2022-08-19T10:05:59.043Z,24.22
2022-08-19T10:08:37.404Z,24.01
2022-08-19T10:11:28.063Z,24.00
2022-08-19T10:13:51.480Z,24.35
2022-08-19T10:16:20.940Z,24.54
2022-08-19T10:18:49.605Z,24.74
2022-08-19T10:21:19.513Z,24.52
2022-08-19T10:23:47.835Z,24.44
2022-08-19T10:26:19.073Z,24.50
2022-08-19T10:28:47.100Z,24.41
2022-08-19T10:31:18.277Z,24.27
2022-08-19T10:33:53.660Z,24.11
2022-08-19T10:36:23.491Z,24.30
2022-08-19T10:38:56.533Z,24.54
2022-08-19T10:41:25.466Z,24.79
2022-08-19T10:43:56.166Z,25.44
2022-08-19T10:46:24.694Z,26.41
2022-08-19T10:48:52.023Z,27.19
2022-08-19T10:51:37.116Z,27.70
2022-08-19T10:54:14.503Z,28.29
2022-08-19T10:56:52.796Z,28.25
2022-08-19T10:59:31.425Z,27.88
2022-08-19T11:02:02.113Z,27.47
2022-08-19T11:04:28.888Z,26.99
2022-08-19T11:06:56.530Z,26.80
2022-08-19T11:09:33.963Z,26.76
2022-08-19T11:12:03.017Z,26.47
2022-08-19T11:14:34.060Z,25.90
2022-08-19T11:17:01.326Z,25.75
2022-08-19T11:19:28.538Z,25.52
2022-08-19T11:21:57.799Z,25.64
2022-08-19T11:24:26.978Z,25.96
2022-08-19T11:26:59.982Z,25.94
2022-08-19T11:29:28.598Z,25.89
2022-08-19T11:31:55.886Z,25.66
2022-08-19T11:34:24.174Z,25.89
2022-08-19T11:36:52.171Z,25.90
2022-08-19T11:39:20.933Z,26.16
2022-08-19T11:41:47.578Z,26.55
2022-08-19T11:44:15.166Z,26.00
2022-08-19T11:46:46.431Z,26.10
2022-08-19T11:49:14.911Z,26.41
2022-08-19T11:51:43.765Z,26.36
2022-08-19T11:54:10.509Z,26.60
2022-08-19T11:56:38.362Z,26.17
2022-08-19T11:59:05.049Z,25.75
2022-08-19T12:01:32.339Z,25.10
2022-08-19T12:03:59.066Z,24.86
2022-08-19T12:06:31.193Z,24.81
2022-08-19T12:08:58.574Z,24.74
2022-08-19T12:11:25.253Z,24.65
2022-08-19T12:13:52.156Z,24.69
2022-08-19T12:16:25.493Z,24.79
2022-08-19T12:18:52.169Z,24.86
2022-08-19T12:21:26.009Z,24.82
2022-08-19T12:23:55.794Z,24.86
2022-08-19T12:26:23.608Z,24.99
2022-08-19T12:28:50.059Z,25.04
2022-08-19T12:31:17.338Z,25.00
2022-08-19T12:33:43.893Z,25.11
2022-08-19T12:36:12.296Z,25.10
2022-08-19T12:38:39.649Z,25.05
2022-08-19T12:41:07.928Z,24.71
2022-08-19T12:43:35.965Z,24.57
2022-08-19T12:46:05.166Z,24.36
2022-08-19T12:48:36.746Z,24.55
2022-08-19T12:51:08.553Z,24.40
2022-08-19T12:53:35.375Z,24.39
2022-08-19T12:56:07.449Z,24.21
2022-08-19T12:58:38.754Z,24.30
2022-08-19T13:01:11.476Z,24.26
2022-08-19T13:03:40.561Z,24.42
2022-08-19T13:06:08.057Z,24.55
2022-08-19T13:08:34.634Z,24.37
2022-08-19T13:11:18.383Z,24.49
2022-08-19T13:13:46.506Z,24.37
2022-08-19T13:16:15.242Z,24.05
2022-08-19T13:18:42.322Z,23.92
2022-08-19T13:21:10.370Z,23.89
2022-08-19T13:23:36.885Z,23.95
2022-08-19T13:26:06.188Z,23.77
2022-08-19T13:28:53.042Z,23.85
2022-08-19T13:31:39.314Z,23.90
2022-08-19T13:34:06.633Z,23.70
2022-08-19T13:36:36.860Z,23.79
2022-08-19T13:39:04.553Z,23.71
2022-08-19T13:41:31.901Z,23.66
2022-08-19T13:43:58.451Z,23.63
2022-08-19T13:46:24.914Z,23.56
2022-08-19T13:48:51.558Z,23.54
2022-08-19T13:51:18.574Z,23.44
2022-08-19T13:53:48.077Z,23.40
2022-08-19T13:56:17.271Z,23.31
2022-08-19T13:58:44.373Z,23.23
2022-08-19T14:01:11.867Z,23.16
2022-08-19T14:03:39.341Z,23.15
2022-08-19T14:06:05.970Z,23.13
2022-08-19T14:08:33.310Z,23.15
2022-08-19T14:11:00.392Z,23.18
2022-08-19T14:13:34.835Z,23.05
2022-08-19T14:16:01.376Z,22.95
2022-08-19T14:18:28.645Z,22.96
2022-08-19T14:20:57.753Z,22.95
2022-08-19T14:23:25.370Z,22.95
2022-08-19T14:25:51.867Z,22.93
2022-08-19T14:28:18.411Z,22.95
2022-08-19T14:30:45.517Z,23.07
2022-08-19T14:33:12.556Z,22.86
2022-08-19T14:35:39.325Z,22.81
2022-08-19T14:38:07.233Z,22.94
2022-08-19T14:40:34.234Z,22.89
2022-08-19T14:43:04.807Z,22.76
2022-08-19T14:45:37.033Z,22.70
2022-08-19T14:48:08.043Z,22.64
2022-08-19T14:50:39.085Z,22.67
2022-08-19T14:53:12.787Z,22.64
2022-08-19T14:55:42.826Z,22.77
2022-08-19T14:58:09.856Z,22.68
2022-08-19T15:00:55.210Z,22.66
2022-08-19T15:03:21.647Z,22.63
2022-08-19T15:05:48.067Z,22.78
2022-08-19T15:08:14.643Z,22.72
2022-08-19T15:10:41.140Z,22.67
2022-08-19T15:13:08.186Z,22.78
2022-08-19T15:15:35.926Z,22.82
2022-08-19T15:18:03.574Z,22.90
2022-08-19T15:20:30.437Z,22.92
2022-08-19T15:22:56.919Z,23.08
2022-08-19T15:25:23.433Z,23.15
2022-08-19T15:27:51.153Z,23.22
2022-08-19T15:30:22.292Z,23.32
2022-08-19T15:32:49.345Z,23.24
2022-08-19T15:35:16.390Z,23.25
2022-08-19T15:37:43.134Z,23.27
2022-08-19T15:40:10.027Z,23.24
2022-08-19T15:42:37.728Z,23.27
2022-08-19T15:45:06.370Z,23.24
2022-08-19T15:47:34.414Z,23.22
2022-08-19T15:50:05.829Z,23.19
2022-08-19T15:52:32.533Z,23.20
2022-08-19T15:55:00.474Z,23.15
2022-08-19T15:57:27.343Z,23.22
2022-08-19T16:00:12.278Z,23.36
2022-08-19T16:02:57.526Z,23.11
2022-08-19T16:05:45.390Z,23.26
2022-08-19T16:08:11.908Z,23.34
2022-08-19T16:10:39.599Z,23.39
2022-08-19T16:13:06.112Z,23.27
2022-08-19T16:15:33.758Z,23.18
2022-08-19T16:18:02.845Z,22.93
2022-08-19T16:20:29.654Z,22.86
2022-08-19T16:22:58.586Z,22.95
2022-08-19T16:25:28.492Z,23.08
2022-08-19T16:28:07.550Z,22.99
2022-08-19T16:30:39.568Z,22.95
2022-08-19T16:33:06.613Z,23.00
2022-08-19T16:35:33.050Z,22.90
2022-08-19T16:37:59.467Z,22.93
2022-08-19T16:40:26.021Z,22.76
2022-08-19T16:42:53.596Z,22.86
2022-08-19T16:45:21.893Z,22.79
2022-08-19T16:47:48.346Z,22.76
2022-08-19T16:50:14.800Z,22.83
2022-08-19T16:52:41.257Z,22.78
2022-08-19T16:55:08.439Z,22.85
2022-08-19T16:57:34.987Z,22.89
2022-08-19T17:00:08.690Z,22.84
2022-08-19T17:02:35.300Z,22.87
2022-08-19T17:05:02.029Z,22.86
2022-08-19T17:07:33.121Z,22.73
2022-08-19T17:10:00.348Z,22.76
2022-08-19T17:12:30.475Z,22.78
2022-08-19T17:14:58.962Z,22.81
2022-08-19T17:17:28.964Z,22.77
2022-08-19T17:19:55.692Z,22.73
2022-08-19T17:22:22.181Z,22.70
2022-08-19T17:24:48.622Z,22.76
2022-08-19T17:27:15.080Z,22.70
2022-08-19T17:29:46.347Z,22.62
2022-08-19T17:32:13.504Z,22.64
2022-08-19T17:34:39.947Z,22.60
2022-08-19T17:37:06.418Z,22.56
2022-08-19T17:39:32.962Z,22.50
2022-08-19T17:42:06.115Z,22.46
2022-08-19T17:44:36.545Z,22.50
2022-08-19T17:47:04.260Z,22.57
2022-08-19T17:49:30.928Z,22.47
2022-08-19T17:51:59.795Z,22.45
2022-08-19T17:54:28.657Z,22.58
2022-08-19T17:57:01.271Z,22.51
2022-08-19T17:59:30.030Z,22.48
2022-08-19T18:01:57.390Z,22.37
2022-08-19T18:04:25.567Z,22.40
2022-08-19T18:06:54.333Z,22.36
2022-08-19T18:09:27.315Z,22.36
2022-08-19T18:11:56.749Z,22.28
2022-08-19T18:14:33.333Z,22.25
2022-08-19T18:17:09.208Z,22.25
2022-08-19T18:19:41.159Z,22.21
2022-08-19T18:22:10.216Z,22.27
2022-08-19T18:24:41.613Z,22.25
2022-08-19T18:27:08.147Z,22.22
2022-08-19T18:29:38.161Z,22.28
2022-08-19T18:32:05.875Z,22.21
2022-08-19T18:34:32.552Z,22.20
2022-08-19T18:36:59.014Z,22.20
2022-08-19T18:39:44.205Z,22.19
2022-08-19T18:42:34.328Z,22.15
2022-08-19T18:45:19.415Z,22.23
2022-08-19T18:48:04.731Z,22.20
2022-08-19T18:50:31.230Z,22.21
2022-08-19T18:52:57.691Z,22.16
2022-08-19T18:55:26.740Z,22.20
2022-08-19T18:57:53.609Z,22.20
2022-08-19T19:00:20.818Z,22.11
2022-08-19T19:02:47.734Z,22.13
2022-08-19T19:05:15.158Z,22.07
2022-08-19T19:07:42.358Z,21.95
2022-08-19T19:10:09.100Z,22.01
2022-08-19T19:12:36.794Z,21.86
2022-08-19T19:15:06.050Z,21.86
2022-08-19T19:17:32.828Z,21.86
2022-08-19T19:19:59.448Z,21.95
2022-08-19T19:22:25.921Z,21.89
2022-08-19T19:24:54.132Z,21.82
2022-08-19T19:27:21.534Z,21.86
2022-08-19T19:29:51.941Z,21.95
2022-08-19T19:32:24.016Z,21.89
2022-08-19T19:34:50.528Z,21.84
2022-08-19T19:37:17.322Z,21.80
2022-08-19T19:39:45.950Z,21.78
2022-08-19T19:42:21.003Z,21.84
2022-08-19T19:44:50.395Z,21.86
2022-08-19T19:47:18.837Z,21.74
2022-08-19T19:50:13.198Z,21.68
2022-08-19T19:52:39.253Z,21.64
2022-08-19T19:55:06.044Z,21.70
2022-08-19T19:57:32.767Z,21.70
2022-08-19T19:59:59.456Z,21.53
2022-08-19T20:02:25.922Z,21.64
2022-08-19T20:04:52.882Z,21.71
2022-08-19T20:07:39.446Z,21.75
2022-08-19T20:10:06.166Z,21.76
2022-08-19T20:12:32.567Z,21.66
2022-08-19T20:14:58.998Z,21.58
2022-08-19T20:17:25.417Z,21.61
2022-08-19T20:19:51.846Z,21.73
2022-08-19T20:22:19.167Z,21.67
2022-08-19T20:24:45.750Z,21.63
2022-08-19T20:27:12.288Z,21.60
2022-08-19T20:29:41.673Z,21.55
2022-08-19T20:32:12.479Z,21.62
2022-08-19T20:34:40.321Z,21.61
2022-08-19T20:37:09.347Z,21.47
2022-08-19T20:39:36.469Z,21.45
2022-08-19T20:42:03.022Z,21.50
2022-08-19T20:44:29.493Z,21.48
2022-08-19T20:46:59.422Z,21.59
2022-08-19T20:49:28.560Z,21.52
2022-08-19T20:51:56.771Z,21.56
2022-08-19T20:54:24.130Z,21.57
2022-08-19T20:56:51.078Z,21.55
2022-08-19T20:59:17.727Z,21.58
2022-08-19T21:01:44.145Z,21.62
2022-08-19T21:04:10.559Z,21.62
2022-08-19T21:06:38.524Z,21.54
2022-08-19T21:09:05.327Z,21.58
2022-08-19T21:11:32.342Z,21.49
2022-08-19T21:13:59.342Z,21.47
2022-08-19T21:16:25.853Z,21.51
2022-08-19T21:18:52.537Z,21.36
2022-08-19T21:21:19.062Z,21.35
2022-08-19T21:23:45.494Z,21.29
2022-08-19T21:26:11.949Z,21.35
2022-08-19T21:28:38.415Z,21.29
2022-08-19T21:31:06.639Z,21.26
2022-08-19T21:33:33.614Z,21.38
2022-08-19T21:36:00.143Z,21.31
2022-08-19T21:38:27.500Z,21.25
2022-08-19T21:40:54.918Z,21.28
2022-08-19T21:43:21.806Z,21.24
2022-08-19T21:45:50.483Z,21.22
2022-08-19T21:48:18.015Z,21.24
2022-08-19T21:50:46.071Z,21.17
2022-08-19T21:53:18.637Z,21.23
2022-08-19T21:55:46.104Z,21.23
2022-08-19T21:58:19.767Z,21.25
2022-08-19T22:00:55.237Z,21.25
2022-08-19T22:03:22.105Z,21.32
2022-08-19T22:05:48.615Z,21.34
2022-08-19T22:08:15.288Z,21.31
2022-08-19T22:10:41.759Z,21.28
2022-08-19T22:13:09.468Z,21.19
2022-08-19T22:15:36.034Z,21.24
2022-08-19T22:18:02.724Z,21.18
2022-08-19T22:20:31.421Z,21.30
2022-08-19T22:23:03.418Z,21.17
2022-08-19T22:25:33.001Z,21.15
2022-08-19T22:28:01.848Z,21.13
2022-08-19T22:30:32.373Z,21.12
2022-08-19T22:33:04.141Z,21.16
2022-08-19T22:35:34.426Z,21.20
2022-08-19T22:38:01.453Z,21.25
2022-08-19T22:40:30.303Z,21.22
2022-08-19T22:43:02.841Z,21.20
2022-08-19T22:45:30.248Z,21.29
2022-08-19T22:47:57.210Z,21.23
2022-08-19T22:50:24.185Z,21.23
2022-08-19T22:52:58.642Z,21.20
2022-08-19T22:55:29.795Z,21.20
2022-08-19T22:57:57.231Z,21.30
2022-08-19T23:00:27.391Z,21.31
2022-08-19T23:02:55.846Z,21.28
2022-08-19T23:05:24.896Z,21.29
2022-08-19T23:07:52.558Z,21.31
2022-08-19T23:10:26.933Z,21.29
2022-08-19T23:12:56.273Z,21.20
2022-08-19T23:15:26.005Z,21.23
2022-08-19T23:17:54.949Z,21.28
2022-08-19T23:20:27.361Z,21.18
2022-08-19T23:22:55.652Z,21.18
2022-08-19T23:25:26.601Z,21.16
2022-08-19T23:28:12.012Z,21.17
2022-08-19T23:30:43.440Z,21.16
2022-08-19T23:33:18.717Z,21.18
2022-08-19T23:35:45.351Z,21.12
2022-08-19T23:38:12.394Z,21.13
2022-08-19T23:40:39.229Z,21.10
2022-08-19T23:43:08.136Z,20.99
2022-08-19T23:45:40.861Z,20.92
2022-08-19T23:48:18.370Z,20.90
2022-08-19T23:50:45.471Z,20.87
2022-08-19T23:53:13.419Z,20.88
2022-08-19T23:55:42.643Z,20.84
2022-08-19T23:58:09.514Z,20.81
